Historyczne dane pomiarowe

Dodano dane terminowe – wersja testowa.

Dane z okresu 1951-2019

Wersja bazy: 1.34 [2019-03-16, lista zmian], aktualizacja planowana na 2019-04-15

Dane meteo z obszaru Polski uzyskane na podstawie danych udostępnionych przez Instytut Meteorologii i Gospodarki Wodnej – Państwowy Instytut Badawczy.

 

Wybierz Datę:    

       

TemperaturaWilgotnośćWiatrCiśnienieOpadyŚniegCzas trwania zjawisk
 Stacja t tx tn tng RH VA  wxwx mslp ppp RRR   cm mm wxwxwxwxwxwxwx
1999-08-14 16.3 21.7 11.3- 87.0- 6.3 1.7---- 0.0------------
1999-08-13 17.4 22.0 13.7- 81.8- 6.0 2.3---- 0.0------------
1999-08-12 17.1 22.1 13.7- 85.5- 5.0 3.0---- 0.0------------
1999-08-11 21.1 26.1 17.4- 85.5- 1.7 2.0---- 10.0------------
1999-08-10 20.7 28.2 15.9- 92.0- 7.7 1.0---- 9.3------------
1999-08-09 23.5 30.4 19.3- 79.0- 6.0 1.3---- 0.0------------
1999-08-08 22.7 28.1 18.3- 93.8- 6.0 1.0---- 0.1------------
1999-08-07 21.8 30.0 14.8- 83.3- 3.0 1.0---- 2.7------------
1999-08-06 20.8 26.8 15.8- 87.8- 5.3 1.0---- 0.0------------
1999-08-05 21.0 28.4 14.2- 79.8- 3.3 1.0---- 0.0------------
1999-08-04 19.8 26.8 13.1- 82.3- 2.7 1.0---- 0.0------------
1999-08-03 19.9 27.1 13.6- 75.8- 1.3 1.3---- 0.0------------
1999-08-02 20.1 27.4 13.9- 77.3- 2.0 1.0---- 0.0------------
1999-08-01 19.6 26.7 13.7- 79.0- 4.3 1.3---- 0.0------------
1999-07-31 20.9 28.0 14.6- 79.8- 2.3 1.3---- 0.0------------
1999-07-30 20.1 26.6 14.0- 77.5- 2.0 1.3---- 0.0------------
1999-07-29 19.0 24.8 13.0- 80.3- 2.7 1.0---- 0.0------------
1999-07-28 18.9 23.8 14.8- 85.0- 4.0 1.3---- 0.0------------
1999-07-27 19.8 25.6 15.7- 79.5- 3.0 1.7---- 0.0------------
1999-07-26 22.4 29.5 16.4- 85.3- 4.3 1.7---- 0.0------------
1999-07-25 20.6 27.2 14.2- 75.8- 3.0 1.3---- 0.0------------
1999-07-24 19.1 24.6 15.3- 88.0- 4.7 1.3---- 0.0------------
1999-07-23 18.0 20.6 15.3- 87.8- 8.0 1.0---- 0.0------------
1999-07-22 21.1 25.1 18.9- 82.5- 6.3 1.7---- 0.0------------
1999-07-21 23.6 30.4 18.7- 76.8- 4.0 2.0---- 0.0------------
1999-07-20 23.3 30.3 16.8- 83.3- 0.7 1.0---- 0.0------------
1999-07-19 23.4 30.4 17.8- 74.5- 5.3 1.3---- 1.1------------
1999-07-18 21.1 26.8 14.9- 77.8- 3.7 1.3---- 0.0------------
1999-07-17 19.0 25.4 12.9- 86.5- 2.3 1.0---- 0.0------------
1999-07-16 17.5 22.1 12.7- 88.5- 2.0 1.0---- 0.7------------
1999-07-15 17.7 22.5 12.8- 93.5- 5.0 2.0---- 0.4------------
1999-07-14 21.3 26.6 18.3- 89.0- 7.3 1.3---- 12.1------------
1999-07-13 22.4 29.1 17.5- 82.5- 6.0 1.0---- 0.0------------
1999-07-12 22.5 29.1 16.0- 80.5- 7.3 1.3---- 0.0------------
1999-07-11 21.5 28.4 15.3- 76.5- 0.7 1.7---- 0.0------------
1999-07-10 21.1 26.5 15.9- 75.0- 0.7 2.0---- 0.0------------
1999-07-09 19.3 24.5 14.2- 89.5- 5.3 1.3---- 0.0------------
1999-07-08 18.6 22.1 16.3- 98.3- 8.0 1.0---- 10.4------------
1999-07-07 23.3 29.8 20.3- 91.3- 8.0 2.0---- 0.0------------
1999-07-06 26.2 32.7 19.8- 82.3- 3.3 1.7---- 2.0------------
1999-07-05 26.4 33.6 20.3- 90.3- 0.3 1.3---- 0.0------------
1999-07-04 24.7 32.1 16.0- 61.3- 0.0 1.7---- 0.0------------
1999-07-03 21.9 27.6 16.9- 85.3- 4.3 1.0---- 0.0------------
1999-07-02 21.3 25.9 17.4- 85.0- 5.0 1.7---- 0.0------------
1999-07-01 20.9 25.9 15.0- 83.3- 3.7 1.0---- 0.0------------
1999-06-30 20.2 26.2 14.8- 86.5- 3.3 1.0---- 0.0------------
1999-06-29 21.2 28.3 16.2- 83.8- 3.7 2.0---- 0.0------------
1999-06-28 21.8 29.6 13.3- 84.0- 2.0 1.0---- 0.0------------
1999-06-27 19.7 27.0 12.4- 85.5- 0.0 1.0---- 0.0------------
1999-06-26 16.3 22.0 9.0- 83.5- 3.3 1.3---- 0.0------------
1999-06-25 14.1 17.4 11.0- 92.0- 7.7 2.7---- 1.2------------
1999-06-24 12.5 14.6 10.2- 96.5- 8.0 1.3---- 1.6------------
1999-06-23 11.7 14.1 9.8- 97.0- 8.0 3.0---- 20.8------------
1999-06-22 14.6 17.9 12.7- 97.0- 8.0 2.3---- 22.2------------
1999-06-21 18.7 24.1 15.7- 97.0- 7.7 1.0---- 2.4------------
1999-06-20 20.0 24.4 15.8- 91.0- 7.7 2.0---- 2.0------------
1999-06-19 20.8 26.6 15.8- 93.5- 5.3 1.0---- 0.0------------
1999-06-18 17.5 20.1 15.9- 97.3- 8.0 1.3---- 29.1------------
1999-06-17 18.6 21.1 16.7- 98.8- 8.0 1.0---- 8.5------------
1999-06-16 19.7 22.6 17.5- 96.8- 8.0 1.0---- 1.3------------
329.5 ms

 

Źródłem pochodzenia danych jest Instytut Meteorologii i Gospodarki Wodnej – Państwowy Instytut Badawczy. Dane Instytutu Meteorologii i Gospodarki Wodnej – Państwowego Instytutu Badawczego zostały przetworzone.

Dane źródłowe można odnaleźć na stronie https://dane.imgw.pl